sensor_id;sensor_type;location;lat;lon;timestamp;temperature;humidity
2623;DHT22;1321;48.690;9.022;2023-02-28T00:01:43;2.10;1.00
2623;DHT22;1321;48.690;9.022;2023-02-28T00:04:11;2.20;1.00
2623;DHT22;1321;48.690;9.022;2023-02-28T00:06:41;2.20;1.00
2623;DHT22;1321;48.690;9.022;2023-02-28T00:09:10;2.10;1.00
2623;DHT22;1321;48.690;9.022;2023-02-28T00:11:38;2.10;1.00
2623;DHT22;1321;48.690;9.022;2023-02-28T00:14:06;2.00;1.00
2623;DHT22;1321;48.690;9.022;2023-02-28T00:16:34;2.00;1.00
2623;DHT22;1321;48.690;9.022;2023-02-28T00:19:02;2.00;1.00
2623;DHT22;1321;48.690;9.022;2023-02-28T00:21:30;2.00;1.00
2623;DHT22;1321;48.690;9.022;2023-02-28T00:24:00;2.10;1.00
2623;DHT22;1321;48.690;9.022;2023-02-28T00:26:28;2.00;1.00
2623;DHT22;1321;48.690;9.022;2023-02-28T00:28:56;1.90;1.00
2623;DHT22;1321;48.690;9.022;2023-02-28T00:31:24;1.90;1.00
2623;DHT22;1321;48.690;9.022;2023-02-28T00:33:53;1.90;1.00
2623;DHT22;1321;48.690;9.022;2023-02-28T00:36:21;1.90;1.00
2623;DHT22;1321;48.690;9.022;2023-02-28T00:38:49;1.90;1.00
2623;DHT22;1321;48.690;9.022;2023-02-28T00:41:19;1.90;1.00
2623;DHT22;1321;48.690;9.022;2023-02-28T00:43:47;1.90;1.00
2623;DHT22;1321;48.690;9.022;2023-02-28T00:46:15;1.90;1.00
2623;DHT22;1321;48.690;9.022;2023-02-28T00:48:43;1.90;1.00
2623;DHT22;1321;48.690;9.022;2023-02-28T00:51:11;1.80;1.00
2623;DHT22;1321;48.690;9.022;2023-02-28T00:53:39;1.80;1.00
2623;DHT22;1321;48.690;9.022;2023-02-28T00:56:07;1.80;1.00
2623;DHT22;1321;48.690;9.022;2023-02-28T00:58:37;1.70;1.00
2623;DHT22;1321;48.690;9.022;2023-02-28T01:01:06;1.70;1.00
2623;DHT22;1321;48.690;9.022;2023-02-28T01:03:34;1.70;1.00
2623;DHT22;1321;48.690;9.022;2023-02-28T01:06:02;1.50;1.00
2623;DHT22;1321;48.690;9.022;2023-02-28T01:08:30;1.50;1.00
2623;DHT22;1321;48.690;9.022;2023-02-28T01:11:07;1.60;1.00
2623;DHT22;1321;48.690;9.022;2023-02-28T01:13:37;1.60;1.00
2623;DHT22;1321;48.690;9.022;2023-02-28T01:16:06;1.60;1.00
2623;DHT22;1321;48.690;9.022;2023-02-28T01:18:35;1.70;1.00
2623;DHT22;1321;48.690;9.022;2023-02-28T01:21:04;1.70;1.00
2623;DHT22;1321;48.690;9.022;2023-02-28T01:23:32;1.60;1.00
2623;DHT22;1321;48.690;9.022;2023-02-28T01:26:04;1.70;1.00
2623;DHT22;1321;48.690;9.022;2023-02-28T01:28:32;1.60;1.00
2623;DHT22;1321;48.690;9.022;2023-02-28T01:31:02;1.60;1.00
2623;DHT22;1321;48.690;9.022;2023-02-28T01:33:30;1.60;1.00
2623;DHT22;1321;48.690;9.022;2023-02-28T01:35:59;1.60;1.00
2623;DHT22;1321;48.690;9.022;2023-02-28T01:38:27;1.60;1.00
2623;DHT22;1321;48.690;9.022;2023-02-28T01:40:56;1.60;1.00
2623;DHT22;1321;48.690;9.022;2023-02-28T01:43:26;1.60;1.00
2623;DHT22;1321;48.690;9.022;2023-02-28T01:45:56;1.60;1.00
2623;DHT22;1321;48.690;9.022;2023-02-28T01:48:29;1.50;1.00
2623;DHT22;1321;48.690;9.022;2023-02-28T01:51:02;1.50;1.00
2623;DHT22;1321;48.690;9.022;2023-02-28T01:53:36;1.50;1.00
2623;DHT22;1321;48.690;9.022;2023-02-28T01:56:07;1.50;1.00
2623;DHT22;1321;48.690;9.022;2023-02-28T01:58:38;1.50;1.00
2623;DHT22;1321;48.690;9.022;2023-02-28T02:01:06;1.50;1.00
2623;DHT22;1321;48.690;9.022;2023-02-28T02:03:36;1.50;1.00
2623;DHT22;1321;48.690;9.022;2023-02-28T02:06:04;1.50;1.00
2623;DHT22;1321;48.690;9.022;2023-02-28T02:08:32;1.50;1.00
2623;DHT22;1321;48.690;9.022;2023-02-28T02:11:01;1.50;1.00
2623;DHT22;1321;48.690;9.022;2023-02-28T02:14:01;1.40;1.00
2623;DHT22;1321;48.690;9.022;2023-02-28T02:16:45;1.40;1.00
2623;DHT22;1321;48.690;9.022;2023-02-28T02:19:42;1.40;1.00
2623;DHT22;1321;48.690;9.022;2023-02-28T02:22:50;1.40;1.00
2623;DHT22;1321;48.690;9.022;2023-02-28T02:25:26;1.40;1.00
2623;DHT22;1321;48.690;9.022;2023-02-28T02:31:26;1.40;1.00
2623;DHT22;1321;48.690;9.022;2023-02-28T02:34:26;1.40;1.00
2623;DHT22;1321;48.690;9.022;2023-02-28T02:37:03;1.30;1.00
2623;DHT22;1321;48.690;9.022;2023-02-28T02:39:40;1.30;1.00
2623;DHT22;1321;48.690;9.022;2023-02-28T02:42:14;1.30;1.00
2623;DHT22;1321;48.690;9.022;2023-02-28T02:44:46;1.30;1.00
2623;DHT22;1321;48.690;9.022;2023-02-28T02:47:17;1.30;1.00
2623;DHT22;1321;48.690;9.022;2023-02-28T02:49:50;1.30;1.00
2623;DHT22;1321;48.690;9.022;2023-02-28T02:52:23;1.30;1.00
2623;DHT22;1321;48.690;9.022;2023-02-28T02:54:54;1.30;1.00
2623;DHT22;1321;48.690;9.022;2023-02-28T02:57:24;1.30;1.00
2623;DHT22;1321;48.690;9.022;2023-02-28T02:59:56;1.40;1.00
2623;DHT22;1321;48.690;9.022;2023-02-28T03:02:26;1.40;1.00
2623;DHT22;1321;48.690;9.022;2023-02-28T03:05:04;1.40;1.00
2623;DHT22;1321;48.690;9.022;2023-02-28T03:07:34;1.40;1.00
2623;DHT22;1321;48.690;9.022;2023-02-28T03:10:03;1.40;1.00
2623;DHT22;1321;48.690;9.022;2023-02-28T03:12:40;1.40;1.00
2623;DHT22;1321;48.690;9.022;2023-02-28T03:15:13;1.40;1.00
2623;DHT22;1321;48.690;9.022;2023-02-28T03:17:50;1.40;1.00
2623;DHT22;1321;48.690;9.022;2023-02-28T03:20:32;1.40;1.00
2623;DHT22;1321;48.690;9.022;2023-02-28T03:23:16;1.50;1.00
2623;DHT22;1321;48.690;9.022;2023-02-28T03:25:54;1.40;1.00
2623;DHT22;1321;48.690;9.022;2023-02-28T03:28:30;1.50;1.00
2623;DHT22;1321;48.690;9.022;2023-02-28T03:31:02;1.40;1.00
2623;DHT22;1321;48.690;9.022;2023-02-28T03:33:35;1.40;1.00
2623;DHT22;1321;48.690;9.022;2023-02-28T03:36:10;1.50;1.00
2623;DHT22;1321;48.690;9.022;2023-02-28T03:38:43;1.40;1.00
2623;DHT22;1321;48.690;9.022;2023-02-28T03:41:15;1.40;1.00
2623;DHT22;1321;48.690;9.022;2023-02-28T03:43:48;1.50;1.00
2623;DHT22;1321;48.690;9.022;2023-02-28T03:46:19;1.50;1.00
2623;DHT22;1321;48.690;9.022;2023-02-28T03:48:53;1.50;1.00
2623;DHT22;1321;48.690;9.022;2023-02-28T03:51:27;1.50;1.00
2623;DHT22;1321;48.690;9.022;2023-02-28T03:53:59;1.50;1.00
2623;DHT22;1321;48.690;9.022;2023-02-28T03:56:33;1.50;1.00
2623;DHT22;1321;48.690;9.022;2023-02-28T03:59:07;1.50;1.00
2623;DHT22;1321;48.690;9.022;2023-02-28T04:01:40;1.50;1.00
2623;DHT22;1321;48.690;9.022;2023-02-28T04:04:10;1.60;1.00
2623;DHT22;1321;48.690;9.022;2023-02-28T04:06:40;1.50;1.00
2623;DHT22;1321;48.690;9.022;2023-02-28T04:09:11;1.60;1.00
2623;DHT22;1321;48.690;9.022;2023-02-28T04:11:40;1.60;1.00
2623;DHT22;1321;48.690;9.022;2023-02-28T04:14:10;1.60;1.00
2623;DHT22;1321;48.690;9.022;2023-02-28T04:16:39;1.60;1.00
2623;DHT22;1321;48.690;9.022;2023-02-28T04:19:09;1.60;1.00
2623;DHT22;1321;48.690;9.022;2023-02-28T04:21:41;1.60;1.00
2623;DHT22;1321;48.690;9.022;2023-02-28T04:24:11;1.60;1.00
2623;DHT22;1321;48.690;9.022;2023-02-28T04:26:42;1.60;1.00
2623;DHT22;1321;48.690;9.022;2023-02-28T04:29:12;1.60;1.00
2623;DHT22;1321;48.690;9.022;2023-02-28T04:31:41;1.50;1.00
2623;DHT22;1321;48.690;9.022;2023-02-28T04:34:09;1.50;1.00
2623;DHT22;1321;48.690;9.022;2023-02-28T04:36:37;1.50;1.00
2623;DHT22;1321;48.690;9.022;2023-02-28T04:39:07;1.60;1.00
2623;DHT22;1321;48.690;9.022;2023-02-28T04:41:36;1.60;1.00
2623;DHT22;1321;48.690;9.022;2023-02-28T04:44:04;1.60;1.00
2623;DHT22;1321;48.690;9.022;2023-02-28T04:46:32;1.60;1.00
2623;DHT22;1321;48.690;9.022;2023-02-28T04:49:00;1.60;1.00
2623;DHT22;1321;48.690;9.022;2023-02-28T04:51:28;1.60;1.00
2623;DHT22;1321;48.690;9.022;2023-02-28T04:53:57;1.60;1.00
2623;DHT22;1321;48.690;9.022;2023-02-28T04:56:26;1.60;1.00
2623;DHT22;1321;48.690;9.022;2023-02-28T04:58:55;1.70;1.00
2623;DHT22;1321;48.690;9.022;2023-02-28T05:01:25;1.70;1.00
2623;DHT22;1321;48.690;9.022;2023-02-28T05:03:56;1.70;1.00
2623;DHT22;1321;48.690;9.022;2023-02-28T05:06:26;1.70;1.00
2623;DHT22;1321;48.690;9.022;2023-02-28T05:08:54;1.70;1.00
2623;DHT22;1321;48.690;9.022;2023-02-28T05:11:24;1.70;1.00
2623;DHT22;1321;48.690;9.022;2023-02-28T05:13:55;1.70;1.00
2623;DHT22;1321;48.690;9.022;2023-02-28T05:16:23;1.70;1.00
2623;DHT22;1321;48.690;9.022;2023-02-28T05:18:51;1.70;1.00
2623;DHT22;1321;48.690;9.022;2023-02-28T05:21:25;1.70;1.00
2623;DHT22;1321;48.690;9.022;2023-02-28T05:23:55;1.70;1.00
2623;DHT22;1321;48.690;9.022;2023-02-28T05:26:24;1.60;1.00
2623;DHT22;1321;48.690;9.022;2023-02-28T05:28:54;1.60;1.00
2623;DHT22;1321;48.690;9.022;2023-02-28T05:31:23;1.70;1.00
2623;DHT22;1321;48.690;9.022;2023-02-28T05:33:51;1.60;1.00
2623;DHT22;1321;48.690;9.022;2023-02-28T05:36:19;1.60;1.00
2623;DHT22;1321;48.690;9.022;2023-02-28T05:38:48;1.70;1.60
2623;DHT22;1321;48.690;9.022;2023-02-28T05:41:17;1.70;3.10
2623;DHT22;1321;48.690;9.022;2023-02-28T05:43:46;1.70;4.00
2623;DHT22;1321;48.690;9.022;2023-02-28T05:46:16;1.70;4.40
2623;DHT22;1321;48.690;9.022;2023-02-28T05:48:47;1.70;5.20
2623;DHT22;1321;48.690;9.022;2023-02-28T05:51:16;1.80;5.30
2623;DHT22;1321;48.690;9.022;2023-02-28T05:53:44;1.80;6.80
2623;DHT22;1321;48.690;9.022;2023-02-28T05:56:12;1.80;6.80
2623;DHT22;1321;48.690;9.022;2023-02-28T05:58:40;1.80;8.70
2623;DHT22;1321;48.690;9.022;2023-02-28T06:01:35;1.80;20.00
2623;DHT22;1321;48.690;9.022;2023-02-28T06:04:05;1.80;9.90
2623;DHT22;1321;48.690;9.022;2023-02-28T06:06:33;1.80;10.50
2623;DHT22;1321;48.690;9.022;2023-02-28T06:09:03;1.80;11.90
2623;DHT22;1321;48.690;9.022;2023-02-28T06:11:31;1.80;12.40
2623;DHT22;1321;48.690;9.022;2023-02-28T06:14:01;1.80;15.00
2623;DHT22;1321;48.690;9.022;2023-02-28T06:16:32;1.80;16.00
2623;DHT22;1321;48.690;9.022;2023-02-28T06:19:02;1.80;16.80
2623;DHT22;1321;48.690;9.022;2023-02-28T06:21:31;1.80;18.30
2623;DHT22;1321;48.690;9.022;2023-02-28T06:23:59;1.80;20.50
2623;DHT22;1321;48.690;9.022;2023-02-28T06:26:27;1.80;22.50
2623;DHT22;1321;48.690;9.022;2023-02-28T06:28:56;1.90;25.40
2623;DHT22;1321;48.690;9.022;2023-02-28T06:31:24;1.80;24.30
2623;DHT22;1321;48.690;9.022;2023-02-28T06:33:54;1.80;25.70
2623;DHT22;1321;48.690;9.022;2023-02-28T06:36:22;1.80;28.10
2623;DHT22;1321;48.690;9.022;2023-02-28T06:38:51;1.90;40.10
2623;DHT22;1321;48.690;9.022;2023-02-28T06:41:22;1.90;30.20
2623;DHT22;1321;48.690;9.022;2023-02-28T06:43:51;1.90;32.10
2623;DHT22;1321;48.690;9.022;2023-02-28T06:46:19;1.90;31.30
2623;DHT22;1321;48.690;9.022;2023-02-28T06:48:48;1.90;32.20
2623;DHT22;1321;48.690;9.022;2023-02-28T06:51:19;1.90;32.20
2623;DHT22;1321;48.690;9.022;2023-02-28T06:53:49;1.90;31.80
2623;DHT22;1321;48.690;9.022;2023-02-28T06:56:18;1.90;32.60
2623;DHT22;1321;48.690;9.022;2023-02-28T06:58:47;1.90;35.20
2623;DHT22;1321;48.690;9.022;2023-02-28T07:01:16;1.90;34.10
2623;DHT22;1321;48.690;9.022;2023-02-28T07:03:46;1.90;33.90
2623;DHT22;1321;48.690;9.022;2023-02-28T07:06:20;1.90;31.60
2623;DHT22;1321;48.690;9.022;2023-02-28T07:08:49;2.00;29.60
2623;DHT22;1321;48.690;9.022;2023-02-28T07:11:19;1.90;29.40
2623;DHT22;1321;48.690;9.022;2023-02-28T07:13:48;1.90;30.60
2623;DHT22;1321;48.690;9.022;2023-02-28T07:16:16;2.00;30.70
2623;DHT22;1321;48.690;9.022;2023-02-28T07:18:44;2.00;29.70
2623;DHT22;1321;48.690;9.022;2023-02-28T07:21:12;1.90;29.80
2623;DHT22;1321;48.690;9.022;2023-02-28T07:23:42;2.00;28.60
2623;DHT22;1321;48.690;9.022;2023-02-28T07:26:12;2.00;28.40
2623;DHT22;1321;48.690;9.022;2023-02-28T07:28:42;2.00;25.80
2623;DHT22;1321;48.690;9.022;2023-02-28T07:31:11;2.00;27.50
2623;DHT22;1321;48.690;9.022;2023-02-28T07:33:40;2.00;26.60
2623;DHT22;1321;48.690;9.022;2023-02-28T07:36:11;2.00;27.50
2623;DHT22;1321;48.690;9.022;2023-02-28T07:38:44;2.00;27.00
2623;DHT22;1321;48.690;9.022;2023-02-28T07:41:14;2.10;27.40
2623;DHT22;1321;48.690;9.022;2023-02-28T07:43:43;2.10;24.40
2623;DHT22;1321;48.690;9.022;2023-02-28T07:46:14;2.10;24.30
2623;DHT22;1321;48.690;9.022;2023-02-28T07:48:43;2.10;24.00
2623;DHT22;1321;48.690;9.022;2023-02-28T07:51:12;2.10;24.80
2623;DHT22;1321;48.690;9.022;2023-02-28T07:53:40;2.10;25.30
2623;DHT22;1321;48.690;9.022;2023-02-28T07:56:10;2.20;24.20
2623;DHT22;1321;48.690;9.022;2023-02-28T07:58:38;2.20;24.80
2623;DHT22;1321;48.690;9.022;2023-02-28T08:01:07;2.20;23.50
2623;DHT22;1321;48.690;9.022;2023-02-28T08:03:36;2.30;23.40
2623;DHT22;1321;48.690;9.022;2023-02-28T08:06:06;2.30;23.00
2623;DHT22;1321;48.690;9.022;2023-02-28T08:08:35;2.30;22.70
2623;DHT22;1321;48.690;9.022;2023-02-28T08:11:03;2.30;22.20
2623;DHT22;1321;48.690;9.022;2023-02-28T08:13:33;2.40;22.10
2623;DHT22;1321;48.690;9.022;2023-02-28T08:16:03;2.40;21.30
2623;DHT22;1321;48.690;9.022;2023-02-28T08:18:32;2.40;20.20
2623;DHT22;1321;48.690;9.022;2023-02-28T08:21:05;2.30;19.90
2623;DHT22;1321;48.690;9.022;2023-02-28T08:23:34;2.40;20.60
2623;DHT22;1321;48.690;9.022;2023-02-28T08:26:03;2.40;18.90
2623;DHT22;1321;48.690;9.022;2023-02-28T08:28:33;2.30;22.00
2623;DHT22;1321;48.690;9.022;2023-02-28T08:31:01;2.50;23.50
2623;DHT22;1321;48.690;9.022;2023-02-28T08:33:34;2.50;21.40
2623;DHT22;1321;48.690;9.022;2023-02-28T08:36:03;2.50;22.20
2623;DHT22;1321;48.690;9.022;2023-02-28T08:38:31;2.30;20.30
2623;DHT22;1321;48.690;9.022;2023-02-28T08:41:00;2.50;22.00
2623;DHT22;1321;48.690;9.022;2023-02-28T08:43:29;2.50;21.60
2623;DHT22;1321;48.690;9.022;2023-02-28T08:45:59;2.50;19.40
2623;DHT22;1321;48.690;9.022;2023-02-28T08:48:29;2.50;17.30
2623;DHT22;1321;48.690;9.022;2023-02-28T08:50:58;2.50;18.70
2623;DHT22;1321;48.690;9.022;2023-02-28T08:53:34;2.50;19.30
2623;DHT22;1321;48.690;9.022;2023-02-28T08:56:04;2.40;18.90
2623;DHT22;1321;48.690;9.022;2023-02-28T08:58:33;2.50;20.20
2623;DHT22;1321;48.690;9.022;2023-02-28T09:01:09;2.50;19.20
2623;DHT22;1321;48.690;9.022;2023-02-28T09:03:39;2.60;19.30
2623;DHT22;1321;48.690;9.022;2023-02-28T09:06:09;2.60;20.00
2623;DHT22;1321;48.690;9.022;2023-02-28T09:08:38;2.60;18.30
2623;DHT22;1321;48.690;9.022;2023-02-28T09:11:06;2.50;18.50
2623;DHT22;1321;48.690;9.022;2023-02-28T09:13:35;2.60;18.80
2623;DHT22;1321;48.690;9.022;2023-02-28T09:16:05;2.60;19.00
2623;DHT22;1321;48.690;9.022;2023-02-28T09:18:35;2.60;19.40
2623;DHT22;1321;48.690;9.022;2023-02-28T09:21:08;2.70;19.00
2623;DHT22;1321;48.690;9.022;2023-02-28T09:23:36;2.60;15.60
2623;DHT22;1321;48.690;9.022;2023-02-28T09:26:06;2.60;17.20
2623;DHT22;1321;48.690;9.022;2023-02-28T09:28:34;2.60;18.60
2623;DHT22;1321;48.690;9.022;2023-02-28T09:31:02;2.50;14.50
2623;DHT22;1321;48.690;9.022;2023-02-28T09:33:32;2.50;27.20
2623;DHT22;1321;48.690;9.022;2023-02-28T09:36:03;2.60;19.20
2623;DHT22;1321;48.690;9.022;2023-02-28T09:38:31;2.70;19.50
2623;DHT22;1321;48.690;9.022;2023-02-28T09:41:01;2.80;18.40
2623;DHT22;1321;48.690;9.022;2023-02-28T09:43:34;2.80;18.50
2623;DHT22;1321;48.690;9.022;2023-02-28T09:46:11;2.70;17.80
2623;DHT22;1321;48.690;9.022;2023-02-28T09:48:44;2.80;18.80
2623;DHT22;1321;48.690;9.022;2023-02-28T09:51:26;2.90;18.50
2623;DHT22;1321;48.690;9.022;2023-02-28T09:53:56;2.90;17.50
2623;DHT22;1321;48.690;9.022;2023-02-28T09:56:32;2.90;18.20
2623;DHT22;1321;48.690;9.022;2023-02-28T09:59:10;2.90;28.10
2623;DHT22;1321;48.690;9.022;2023-02-28T10:01:48;2.90;18.10
2623;DHT22;1321;48.690;9.022;2023-02-28T10:04:34;3.00;18.00
2623;DHT22;1321;48.690;9.022;2023-02-28T10:07:14;3.00;19.20
2623;DHT22;1321;48.690;9.022;2023-02-28T10:09:48;3.00;17.80
2623;DHT22;1321;48.690;9.022;2023-02-28T10:12:20;2.90;15.30
2623;DHT22;1321;48.690;9.022;2023-02-28T10:14:51;2.90;15.00
2623;DHT22;1321;48.690;9.022;2023-02-28T10:17:23;3.00;15.60
2623;DHT22;1321;48.690;9.022;2023-02-28T10:19:58;3.10;16.40
2623;DHT22;1321;48.690;9.022;2023-02-28T10:22:33;3.10;16.00
2623;DHT22;1321;48.690;9.022;2023-02-28T10:25:16;3.10;15.00
2623;DHT22;1321;48.690;9.022;2023-02-28T10:27:44;3.20;15.00
2623;DHT22;1321;48.690;9.022;2023-02-28T10:30:13;3.10;14.20
2623;DHT22;1321;48.690;9.022;2023-02-28T10:32:47;3.20;15.30
2623;DHT22;1321;48.690;9.022;2023-02-28T10:35:19;3.30;16.60
2623;DHT22;1321;48.690;9.022;2023-02-28T10:37:51;3.50;16.80
2623;DHT22;1321;48.690;9.022;2023-02-28T10:40:30;3.50;16.50
2623;DHT22;1321;48.690;9.022;2023-02-28T10:43:00;3.70;17.20
2623;DHT22;1321;48.690;9.022;2023-02-28T10:45:31;3.80;15.80
2623;DHT22;1321;48.690;9.022;2023-02-28T10:48:03;4.40;19.50
2623;DHT22;1321;48.690;9.022;2023-02-28T10:50:42;4.50;17.60
2623;DHT22;1321;48.690;9.022;2023-02-28T10:53:30;4.70;18.70
2623;DHT22;1321;48.690;9.022;2023-02-28T10:56:08;5.30;20.00
2623;DHT22;1321;48.690;9.022;2023-02-28T10:58:52;5.20;17.70
2623;DHT22;1321;48.690;9.022;2023-02-28T11:01:22;5.30;17.70
2623;DHT22;1321;48.690;9.022;2023-02-28T11:03:51;8.30;39.10
2623;DHT22;1321;48.690;9.022;2023-02-28T11:06:22;9.50;38.70
2623;DHT22;1321;48.690;9.022;2023-02-28T11:08:54;8.60;22.80
2623;DHT22;1321;48.690;9.022;2023-02-28T11:11:26;7.50;11.00
2623;DHT22;1321;48.690;9.022;2023-02-28T11:13:57;6.80;5.70
2623;DHT22;1321;48.690;9.022;2023-02-28T11:16:34;6.10;1.00
2623;DHT22;1321;48.690;9.022;2023-02-28T11:19:04;7.20;11.80
2623;DHT22;1321;48.690;9.022;2023-02-28T11:21:36;6.80;6.20
2623;DHT22;1321;48.690;9.022;2023-02-28T11:24:24;9.30;26.40
2623;DHT22;1321;48.690;9.022;2023-02-28T11:26:52;8.40;13.10
2623;DHT22;1321;48.690;9.022;2023-02-28T11:29:22;7.00;3.00
2623;DHT22;1321;48.690;9.022;2023-02-28T11:32:13;7.50;6.30
2623;DHT22;1321;48.690;9.022;2023-02-28T11:34:45;7.40;4.50
2623;DHT22;1321;48.690;9.022;2023-02-28T11:37:16;7.00;1.90
2623;DHT22;1321;48.690;9.022;2023-02-28T11:39:46;7.70;8.60
2623;DHT22;1321;48.690;9.022;2023-02-28T11:42:32;7.50;4.40
2623;DHT22;1321;48.690;9.022;2023-02-28T11:45:15;7.10;1.00
2623;DHT22;1321;48.690;9.022;2023-02-28T11:47:52;5.70;1.00
2623;DHT22;1321;48.690;9.022;2023-02-28T11:50:41;5.60;1.00
2623;DHT22;1321;48.690;9.022;2023-02-28T11:53:19;5.70;1.00
2623;DHT22;1321;48.690;9.022;2023-02-28T11:55:53;6.00;1.00
2623;DHT22;1321;48.690;9.022;2023-02-28T11:58:30;5.80;1.00
2623;DHT22;1321;48.690;9.022;2023-02-28T12:01:09;5.90;1.00
2623;DHT22;1321;48.690;9.022;2023-02-28T12:03:45;5.90;1.00
2623;DHT22;1321;48.690;9.022;2023-02-28T12:06:22;6.20;1.50
2623;DHT22;1321;48.690;9.022;2023-02-28T12:09:02;6.30;2.70
2623;DHT22;1321;48.690;9.022;2023-02-28T12:11:45;6.50;4.70
2623;DHT22;1321;48.690;9.022;2023-02-28T12:14:47;6.50;4.90
2623;DHT22;1321;48.690;9.022;2023-02-28T12:17:32;6.70;5.70
2623;DHT22;1321;48.690;9.022;2023-02-28T12:20:10;6.70;5.30
2623;DHT22;1321;48.690;9.022;2023-02-28T12:22:43;6.70;4.90
2623;DHT22;1321;48.690;9.022;2023-02-28T12:25:31;6.50;2.40
2623;DHT22;1321;48.690;9.022;2023-02-28T12:28:11;6.60;4.20
2623;DHT22;1321;48.690;9.022;2023-02-28T12:30:47;6.80;6.90
2623;DHT22;1321;48.690;9.022;2023-02-28T12:33:20;7.00;6.90
2623;DHT22;1321;48.690;9.022;2023-02-28T12:35:52;6.90;16.70
2623;DHT22;1321;48.690;9.022;2023-02-28T12:38:26;6.80;4.10
2623;DHT22;1321;48.690;9.022;2023-02-28T12:40:58;6.80;4.00
2623;DHT22;1321;48.690;9.022;2023-02-28T12:43:33;6.70;3.90
2623;DHT22;1321;48.690;9.022;2023-02-28T12:46:09;6.90;5.90
2623;DHT22;1321;48.690;9.022;2023-02-28T12:48:41;6.80;4.40
2623;DHT22;1321;48.690;9.022;2023-02-28T12:51:10;6.70;3.80
2623;DHT22;1321;48.690;9.022;2023-02-28T12:53:52;7.00;6.20
2623;DHT22;1321;48.690;9.022;2023-02-28T12:56:29;7.20;7.40
2623;DHT22;1321;48.690;9.022;2023-02-28T12:59:06;7.20;7.40
2623;DHT22;1321;48.690;9.022;2023-02-28T13:05:07;7.30;12.20
2623;DHT22;1321;48.690;9.022;2023-02-28T13:08:11;7.40;7.70
2623;DHT22;1321;48.690;9.022;2023-02-28T13:10:44;7.50;7.60
2623;DHT22;1321;48.690;9.022;2023-02-28T13:13:17;7.50;7.00
2623;DHT22;1321;48.690;9.022;2023-02-28T13:16:02;7.40;5.40
2623;DHT22;1321;48.690;9.022;2023-02-28T13:18:33;7.50;7.10
2623;DHT22;1321;48.690;9.022;2023-02-28T13:21:04;7.50;7.00
2623;DHT22;1321;48.690;9.022;2023-02-28T13:23:40;7.50;6.30
2623;DHT22;1321;48.690;9.022;2023-02-28T13:26:09;7.60;8.30
2623;DHT22;1321;48.690;9.022;2023-02-28T13:29:21;7.80;8.00
2623;DHT22;1321;48.690;9.022;2023-02-28T13:32:33;7.70;6.10
2623;DHT22;1321;48.690;9.022;2023-02-28T13:41:44;7.60;6.00
2623;DHT22;1321;48.690;9.022;2023-02-28T13:44:14;7.50;6.30
2623;DHT22;1321;48.690;9.022;2023-02-28T13:50:21;7.60;6.70
2623;DHT22;1321;48.690;9.022;2023-02-28T13:55:55;7.60;5.10
2623;DHT22;1321;48.690;9.022;2023-02-28T13:58:43;7.60;4.40
2623;DHT22;1321;48.690;9.022;2023-02-28T14:01:45;7.70;7.40
2623;DHT22;1321;48.690;9.022;2023-02-28T14:04:48;7.80;6.60
2623;DHT22;1321;48.690;9.022;2023-02-28T14:07:22;7.70;4.50
2623;DHT22;1321;48.690;9.022;2023-02-28T14:09:57;7.60;6.00
2623;DHT22;1321;48.690;9.022;2023-02-28T14:12:58;7.60;5.10
2623;DHT22;1321;48.690;9.022;2023-02-28T14:18:27;7.80;8.10
2623;DHT22;1321;48.690;9.022;2023-02-28T14:21:01;7.90;7.90
2623;DHT22;1321;48.690;9.022;2023-02-28T14:23:42;7.90;7.70
2623;DHT22;1321;48.690;9.022;2023-02-28T14:26:26;7.90;7.00
2623;DHT22;1321;48.690;9.022;2023-02-28T14:29:14;8.00;8.30
2623;DHT22;1321;48.690;9.022;2023-02-28T14:31:49;8.10;8.80
2623;DHT22;1321;48.690;9.022;2023-02-28T14:34:36;8.10;7.10
2623;DHT22;1321;48.690;9.022;2023-02-28T14:37:05;7.70;3.20
2623;DHT22;1321;48.690;9.022;2023-02-28T14:39:36;7.60;2.80
2623;DHT22;1321;48.690;9.022;2023-02-28T14:42:28;7.70;4.20
2623;DHT22;1321;48.690;9.022;2023-02-28T14:44:57;7.80;5.60
2623;DHT22;1321;48.690;9.022;2023-02-28T14:47:28;7.90;6.50
2623;DHT22;1321;48.690;9.022;2023-02-28T14:49:57;7.90;5.20
2623;DHT22;1321;48.690;9.022;2023-02-28T14:52:27;7.80;4.20
2623;DHT22;1321;48.690;9.022;2023-02-28T14:54:59;7.90;6.00
2623;DHT22;1321;48.690;9.022;2023-02-28T14:57:53;7.90;6.10
2623;DHT22;1321;48.690;9.022;2023-02-28T15:01:10;8.00;6.70
2623;DHT22;1321;48.690;9.022;2023-02-28T15:03:41;8.00;6.50
2623;DHT22;1321;48.690;9.022;2023-02-28T15:06:16;8.00;7.10
2623;DHT22;1321;48.690;9.022;2023-02-28T15:09:16;8.10;7.30
2623;DHT22;1321;48.690;9.022;2023-02-28T15:11:51;8.10;7.30
2623;DHT22;1321;48.690;9.022;2023-02-28T15:14:22;8.00;5.80
2623;DHT22;1321;48.690;9.022;2023-02-28T15:17:23;8.00;6.00
2623;DHT22;1321;48.690;9.022;2023-02-28T15:19:53;7.90;4.50
2623;DHT22;1321;48.690;9.022;2023-02-28T15:22:26;7.90;4.70
2623;DHT22;1321;48.690;9.022;2023-02-28T15:24:56;7.70;1.70
2623;DHT22;1321;48.690;9.022;2023-02-28T15:27:28;7.80;3.80
2623;DHT22;1321;48.690;9.022;2023-02-28T15:30:00;7.70;3.20
2623;DHT22;1321;48.690;9.022;2023-02-28T15:32:34;7.70;2.80
2623;DHT22;1321;48.690;9.022;2023-02-28T15:35:18;7.80;3.30
2623;DHT22;1321;48.690;9.022;2023-02-28T15:37:50;7.70;3.10
2623;DHT22;1321;48.690;9.022;2023-02-28T15:40:26;7.80;4.00
2623;DHT22;1321;48.690;9.022;2023-02-28T15:43:03;7.80;4.10
2623;DHT22;1321;48.690;9.022;2023-02-28T15:45:36;7.70;2.90
2623;DHT22;1321;48.690;9.022;2023-02-28T15:48:09;7.70;2.90
2623;DHT22;1321;48.690;9.022;2023-02-28T15:50:41;7.70;2.30
2623;DHT22;1321;48.690;9.022;2023-02-28T15:53:15;7.60;2.00
2623;DHT22;1321;48.690;9.022;2023-02-28T15:55:44;7.50;1.00
2623;DHT22;1321;48.690;9.022;2023-02-28T15:58:22;7.40;1.00
2623;DHT22;1321;48.690;9.022;2023-02-28T16:01:05;7.10;1.00
2623;DHT22;1321;48.690;9.022;2023-02-28T16:03:42;7.10;1.00
2623;DHT22;1321;48.690;9.022;2023-02-28T16:06:39;7.20;1.00
2623;DHT22;1321;48.690;9.022;2023-02-28T16:09:11;7.10;1.00
2623;DHT22;1321;48.690;9.022;2023-02-28T16:11:43;7.20;1.00
2623;DHT22;1321;48.690;9.022;2023-02-28T16:14:17;7.30;1.00
2623;DHT22;1321;48.690;9.022;2023-02-28T16:16:47;7.20;1.00
2623;DHT22;1321;48.690;9.022;2023-02-28T16:19:16;7.10;1.00
2623;DHT22;1321;48.690;9.022;2023-02-28T16:21:45;7.10;1.00
2623;DHT22;1321;48.690;9.022;2023-02-28T16:24:13;7.10;1.00
2623;DHT22;1321;48.690;9.022;2023-02-28T16:26:45;7.00;1.00
2623;DHT22;1321;48.690;9.022;2023-02-28T16:29:19;7.00;8.30
2623;DHT22;1321;48.690;9.022;2023-02-28T16:31:51;7.00;1.00
2623;DHT22;1321;48.690;9.022;2023-02-28T16:34:20;6.90;1.00
2623;DHT22;1321;48.690;9.022;2023-02-28T16:36:49;6.90;1.00
2623;DHT22;1321;48.690;9.022;2023-02-28T16:39:18;6.90;1.00
2623;DHT22;1321;48.690;9.022;2023-02-28T16:41:48;7.00;1.00
2623;DHT22;1321;48.690;9.022;2023-02-28T16:44:26;6.90;1.00
2623;DHT22;1321;48.690;9.022;2023-02-28T16:46:55;6.80;1.00
2623;DHT22;1321;48.690;9.022;2023-02-28T16:49:24;6.80;1.00
2623;DHT22;1321;48.690;9.022;2023-02-28T16:51:53;6.80;1.00
2623;DHT22;1321;48.690;9.022;2023-02-28T16:54:22;6.70;1.00
2623;DHT22;1321;48.690;9.022;2023-02-28T16:56:52;6.60;1.00
2623;DHT22;1321;48.690;9.022;2023-02-28T16:59:23;6.60;1.00
2623;DHT22;1321;48.690;9.022;2023-02-28T17:01:52;6.50;1.00
2623;DHT22;1321;48.690;9.022;2023-02-28T17:04:21;6.50;1.00
2623;DHT22;1321;48.690;9.022;2023-02-28T17:06:50;6.40;7.20
2623;DHT22;1321;48.690;9.022;2023-02-28T17:09:20;6.30;1.00
2623;DHT22;1321;48.690;9.022;2023-02-28T17:11:56;6.30;1.00
2623;DHT22;1321;48.690;9.022;2023-02-28T17:14:27;6.20;1.00
2623;DHT22;1321;48.690;9.022;2023-02-28T17:16:55;6.20;1.00
2623;DHT22;1321;48.690;9.022;2023-02-28T17:19:26;6.20;1.00
2623;DHT22;1321;48.690;9.022;2023-02-28T17:21:54;6.10;1.00
2623;DHT22;1321;48.690;9.022;2023-02-28T17:24:24;6.00;1.00
2623;DHT22;1321;48.690;9.022;2023-02-28T17:26:57;6.00;1.00
2623;DHT22;1321;48.690;9.022;2023-02-28T17:29:27;5.90;1.00
2623;DHT22;1321;48.690;9.022;2023-02-28T17:31:55;5.80;1.00